createdAt,value
2022-11-03T00:00:37.094Z,2.70
2022-11-03T00:03:05.087Z,2.87
2022-11-03T00:05:50.109Z,2.73
2022-11-03T00:08:17.491Z,2.40
2022-11-03T00:10:44.865Z,2.50
2022-11-03T00:13:12.250Z,2.77
2022-11-03T00:15:48.451Z,3.07
2022-11-03T00:18:15.846Z,3.00
2022-11-03T00:20:43.430Z,2.90
2022-11-03T00:23:10.827Z,2.83
2022-11-03T00:25:38.223Z,2.80
2022-11-03T00:28:05.699Z,2.90
2022-11-03T00:30:33.098Z,2.70
2022-11-03T00:33:01.821Z,2.83
2022-11-03T00:35:29.233Z,3.10
2022-11-03T00:37:56.754Z,2.70
2022-11-03T00:40:24.174Z,3.00
2022-11-03T00:42:51.566Z,2.97
2022-11-03T00:45:19.100Z,2.40
2022-11-03T00:48:00.442Z,2.77
2022-11-03T00:50:29.248Z,2.60
2022-11-03T00:52:56.634Z,2.80
2022-11-03T00:55:24.056Z,2.80
2022-11-03T00:57:53.845Z,2.87
2022-11-03T01:00:21.281Z,3.00
2022-11-03T01:02:48.669Z,2.57
2022-11-03T01:05:33.737Z,2.50
2022-11-03T01:08:02.930Z,2.53
2022-11-03T01:10:30.326Z,2.70
2022-11-03T01:12:57.688Z,2.47
2022-11-03T01:15:25.133Z,2.70
2022-11-03T01:17:52.528Z,2.30
2022-11-03T01:20:19.921Z,2.10
2022-11-03T01:22:47.310Z,2.30
2022-11-03T01:25:16.131Z,2.37
2022-11-03T01:27:43.589Z,2.33
2022-11-03T01:30:11.616Z,2.30
2022-11-03T01:32:39.037Z,2.10
2022-11-03T01:35:06.682Z,2.50
2022-11-03T01:37:34.077Z,2.50
2022-11-03T01:40:01.457Z,2.33
2022-11-03T01:42:30.209Z,2.13
2022-11-03T01:44:57.609Z,2.33
2022-11-03T01:47:27.384Z,2.47
2022-11-03T01:49:56.714Z,2.30
2022-11-03T01:52:25.380Z,2.57
2022-11-03T01:54:56.089Z,2.30
2022-11-03T01:57:25.358Z,2.10
2022-11-03T01:59:54.746Z,2.10
2022-11-03T02:02:22.275Z,2.50
2022-11-03T02:04:49.842Z,1.97
2022-11-03T02:07:20.288Z,2.83
2022-11-03T02:09:47.703Z,2.00
2022-11-03T02:12:15.825Z,2.30
2022-11-03T02:14:45.081Z,2.50
2022-11-03T02:17:14.855Z,3.13
2022-11-03T02:19:43.897Z,2.30
2022-11-03T02:22:26.779Z,2.30
2022-11-03T02:24:57.302Z,2.10
2022-11-03T02:27:26.531Z,2.20
2022-11-03T02:29:54.685Z,2.43
2022-11-03T02:32:23.576Z,2.27
2022-11-03T02:34:55.596Z,2.30
2022-11-03T02:37:25.064Z,2.50
2022-11-03T02:39:55.250Z,2.10
2022-11-03T02:42:23.039Z,2.03
2022-11-03T02:44:52.198Z,2.30
2022-11-03T02:47:20.133Z,2.50
2022-11-03T02:49:48.292Z,2.30
2022-11-03T02:52:33.919Z,2.47
2022-11-03T02:55:02.832Z,2.10
2022-11-03T02:57:33.209Z,2.83
2022-11-03T03:00:05.787Z,2.30
2022-11-03T03:02:35.913Z,1.93
2022-11-03T03:05:05.049Z,2.43
2022-11-03T03:07:35.098Z,2.50
2022-11-03T03:10:04.790Z,2.70
2022-11-03T03:12:33.366Z,2.50
2022-11-03T03:15:03.248Z,2.40
2022-11-03T03:17:33.943Z,2.50
2022-11-03T03:20:03.077Z,2.23
2022-11-03T03:22:34.609Z,2.20
2022-11-03T03:25:04.101Z,2.37
2022-11-03T03:27:32.999Z,2.30
2022-11-03T03:30:03.976Z,2.40
2022-11-03T03:32:33.608Z,2.40
2022-11-03T03:35:01.477Z,2.30
2022-11-03T03:37:29.553Z,2.37
2022-11-03T03:39:59.105Z,2.37
2022-11-03T03:42:28.346Z,2.50
2022-11-03T03:44:56.788Z,2.83
2022-11-03T03:47:28.336Z,2.90
2022-11-03T03:49:55.894Z,2.83
2022-11-03T03:52:23.317Z,2.53
2022-11-03T03:54:50.807Z,1.97
2022-11-03T03:57:19.566Z,2.40
2022-11-03T03:59:47.017Z,2.83
2022-11-03T04:02:14.590Z,2.67
2022-11-03T04:04:43.461Z,2.60
2022-11-03T04:07:28.243Z,2.53
2022-11-03T04:09:55.623Z,3.10
2022-11-03T04:12:40.583Z,2.50
2022-11-03T04:15:26.237Z,2.77
2022-11-03T04:18:19.416Z,2.50
2022-11-03T04:21:02.211Z,2.30
2022-11-03T04:23:29.551Z,3.00
2022-11-03T04:25:57.486Z,1.90
2022-11-03T04:28:25.501Z,2.20
2022-11-03T04:30:56.082Z,2.57
2022-11-03T04:33:26.193Z,2.50
2022-11-03T04:35:56.091Z,2.13
2022-11-03T04:38:24.182Z,2.23
2022-11-03T04:40:55.045Z,2.67
2022-11-03T04:43:24.046Z,2.73
2022-11-03T04:45:51.467Z,2.10
2022-11-03T04:48:20.462Z,2.57
2022-11-03T04:50:49.100Z,2.20
2022-11-03T04:53:18.533Z,2.10
2022-11-03T04:55:46.961Z,2.57
2022-11-03T04:58:17.221Z,2.17
2022-11-03T05:00:44.679Z,2.30
2022-11-03T05:03:15.609Z,2.70
2022-11-03T05:05:42.998Z,3.43
2022-11-03T05:08:10.578Z,2.20
2022-11-03T05:10:39.326Z,2.33
2022-11-03T05:13:10.745Z,2.50
2022-11-03T05:15:38.882Z,2.43
2022-11-03T05:18:14.685Z,2.37
2022-11-03T05:20:47.521Z,2.00
2022-11-03T05:23:15.117Z,2.37
2022-11-03T05:25:44.977Z,2.33
2022-11-03T05:28:20.467Z,2.20
2022-11-03T05:30:48.766Z,2.33
2022-11-03T05:33:23.886Z,2.03
2022-11-03T05:35:51.281Z,2.70
2022-11-03T05:38:19.966Z,2.80
2022-11-03T05:40:50.401Z,2.40
2022-11-03T05:43:18.117Z,2.37
2022-11-03T05:45:45.570Z,3.07
2022-11-03T05:48:15.191Z,2.63
2022-11-03T05:50:43.107Z,2.40
2022-11-03T05:53:19.881Z,2.40
2022-11-03T05:55:47.290Z,2.73
2022-11-03T05:58:17.318Z,2.80
2022-11-03T06:00:48.581Z,2.60
2022-11-03T06:03:17.961Z,2.20
2022-11-03T06:05:45.364Z,2.10
2022-11-03T06:08:15.467Z,2.50
2022-11-03T06:10:46.122Z,2.70
2022-11-03T06:13:15.861Z,2.17
2022-11-03T06:15:46.871Z,2.50
2022-11-03T06:18:15.598Z,2.70
2022-11-03T06:20:43.593Z,2.60
2022-11-03T06:23:12.422Z,2.70
2022-11-03T06:25:41.997Z,2.20
2022-11-03T06:28:11.595Z,2.43
2022-11-03T06:33:16.780Z,2.60
2022-11-03T06:35:44.965Z,2.27
2022-11-03T06:38:16.145Z,2.17
2022-11-03T06:40:43.533Z,3.23
2022-11-03T06:43:15.929Z,2.87
2022-11-03T06:45:49.141Z,2.93
2022-11-03T06:48:21.718Z,2.23
2022-11-03T06:50:49.136Z,2.80
2022-11-03T06:53:20.581Z,3.00
2022-11-03T06:55:48.593Z,2.83
2022-11-03T06:58:17.936Z,2.40
2022-11-03T07:00:50.886Z,2.70
2022-11-03T07:03:23.754Z,2.60
2022-11-03T07:05:51.164Z,2.43
2022-11-03T07:08:22.222Z,2.60
2022-11-03T07:10:50.913Z,2.70
2022-11-03T07:13:20.734Z,2.67
2022-11-03T07:15:48.170Z,2.70
2022-11-03T07:18:19.466Z,2.80
2022-11-03T07:20:48.331Z,2.40
2022-11-03T07:23:18.049Z,2.40
2022-11-03T07:25:45.807Z,2.77
2022-11-03T07:28:14.216Z,2.37
2022-11-03T07:30:41.619Z,2.40
2022-11-03T07:33:14.368Z,2.53
2022-11-03T07:36:13.061Z,2.80
2022-11-03T07:38:31.467Z,2.90
2022-11-03T07:40:59.865Z,2.73
2022-11-03T07:43:30.124Z,2.50
2022-11-03T07:45:58.538Z,2.70
2022-11-03T07:48:27.201Z,2.90
2022-11-03T07:50:55.422Z,2.87
2022-11-03T07:53:26.207Z,2.23
2022-11-03T07:55:56.452Z,2.47
2022-11-03T07:58:25.817Z,2.60
2022-11-03T08:00:57.475Z,2.73
2022-11-03T08:03:34.554Z,2.50
2022-11-03T08:06:03.800Z,2.60
2022-11-03T08:08:33.531Z,2.40
2022-11-03T08:11:02.473Z,2.07
2022-11-03T08:13:29.946Z,2.30
2022-11-03T08:15:57.490Z,2.47
2022-11-03T08:18:24.966Z,2.53
2022-11-03T08:20:52.389Z,2.53
2022-11-03T08:23:25.800Z,2.40
2022-11-03T08:25:53.832Z,2.50
2022-11-03T08:28:22.798Z,2.50
2022-11-03T08:30:50.271Z,2.20
2022-11-03T08:33:18.138Z,2.00
2022-11-03T08:35:45.658Z,2.47
2022-11-03T08:38:13.035Z,2.20
2022-11-03T08:40:40.410Z,2.13
2022-11-03T08:43:07.791Z,2.30
2022-11-03T08:45:36.558Z,2.20
2022-11-03T08:48:04.396Z,2.10
2022-11-03T08:50:32.061Z,2.53
2022-11-03T08:52:59.441Z,2.63
2022-11-03T08:55:26.826Z,2.40
2022-11-03T08:57:54.233Z,2.73
2022-11-03T09:00:21.697Z,2.10
2022-11-03T09:02:50.446Z,2.20
2022-11-03T09:05:17.958Z,2.30
2022-11-03T09:10:35.660Z,2.70
2022-11-03T09:13:06.413Z,2.40
2022-11-03T09:15:34.272Z,2.60
2022-11-03T09:18:03.468Z,2.13
2022-11-03T09:20:31.578Z,2.47
2022-11-03T09:22:59.013Z,1.97
2022-11-03T09:25:26.474Z,1.90
2022-11-03T09:27:53.876Z,2.23
2022-11-03T09:30:21.431Z,2.00
2022-11-03T09:32:49.150Z,2.43
2022-11-03T09:35:18.043Z,2.20
2022-11-03T09:37:45.463Z,2.20
2022-11-03T09:40:14.719Z,2.20
2022-11-03T09:42:42.378Z,2.10
2022-11-03T09:45:11.081Z,2.10
2022-11-03T09:47:40.268Z,2.60
2022-11-03T09:50:08.744Z,2.40
2022-11-03T09:52:37.647Z,2.13
2022-11-03T09:55:10.981Z,1.87
2022-11-03T09:57:38.386Z,2.00
2022-11-03T10:00:09.225Z,2.10
2022-11-03T10:02:38.719Z,2.10
2022-11-03T10:05:11.031Z,1.93
2022-11-03T10:07:40.170Z,1.97
2022-11-03T10:10:07.935Z,2.00
2022-11-03T10:12:37.701Z,2.10
2022-11-03T10:15:05.290Z,1.63
2022-11-03T10:17:32.689Z,2.03
2022-11-03T10:20:00.481Z,1.90
2022-11-03T10:22:27.900Z,1.90
2022-11-03T10:25:10.195Z,2.20
2022-11-03T10:27:38.947Z,2.20
2022-11-03T10:30:08.474Z,1.73
2022-11-03T10:32:36.052Z,2.23
2022-11-03T10:35:03.722Z,1.73
2022-11-03T10:37:31.113Z,2.20
2022-11-03T10:39:59.369Z,1.90
2022-11-03T10:42:35.013Z,1.93
2022-11-03T10:45:17.307Z,1.90
2022-11-03T10:47:44.842Z,1.67
2022-11-03T10:50:22.466Z,1.80
2022-11-03T10:52:49.973Z,1.63
2022-11-03T10:55:22.078Z,1.70
2022-11-03T10:57:55.445Z,1.73
2022-11-03T11:00:25.011Z,1.83
2022-11-03T11:02:56.681Z,1.80
2022-11-03T11:05:24.746Z,2.70
2022-11-03T11:07:53.262Z,2.23
2022-11-03T11:10:22.118Z,2.30
2022-11-03T11:13:12.243Z,2.27
2022-11-03T11:15:42.245Z,2.33
2022-11-03T11:18:09.875Z,2.53
2022-11-03T11:20:38.639Z,2.43
2022-11-03T11:23:20.919Z,2.40
2022-11-03T11:26:07.041Z,1.83
2022-11-03T11:28:34.452Z,2.13
2022-11-03T11:31:03.606Z,2.20
2022-11-03T11:33:33.014Z,2.40
2022-11-03T11:36:06.186Z,2.50
2022-11-03T11:38:46.760Z,2.17
2022-11-03T11:41:14.174Z,1.97
2022-11-03T11:43:41.605Z,2.17
2022-11-03T11:46:39.745Z,2.47
2022-11-03T11:49:17.910Z,2.20
2022-11-03T11:51:45.655Z,2.40
2022-11-03T11:54:18.183Z,2.23
2022-11-03T11:56:46.792Z,2.37
2022-11-03T11:59:24.329Z,2.30
2022-11-03T12:01:55.551Z,1.97
2022-11-03T12:04:25.286Z,2.17
2022-11-03T12:06:52.815Z,2.00
2022-11-03T12:09:21.397Z,2.17
2022-11-03T12:11:53.834Z,2.43
2022-11-03T12:14:23.638Z,2.70
2022-11-03T12:16:51.132Z,2.60
2022-11-03T12:19:36.949Z,2.73
2022-11-03T12:22:05.027Z,2.50
2022-11-03T12:24:37.137Z,2.60
2022-11-03T12:27:05.572Z,2.47
2022-11-03T12:29:33.263Z,2.47
2022-11-03T12:32:00.680Z,2.50
2022-11-03T12:34:28.107Z,2.30
2022-11-03T12:36:56.923Z,3.00
2022-11-03T12:39:24.356Z,2.60
2022-11-03T12:41:51.737Z,2.90
2022-11-03T12:44:19.272Z,3.13
2022-11-03T12:46:47.046Z,2.83
2022-11-03T12:49:14.468Z,2.80
2022-11-03T12:51:41.865Z,2.83
2022-11-03T12:54:10.607Z,2.87
2022-11-03T12:56:38.195Z,3.30
2022-11-03T12:59:05.646Z,2.80
2022-11-03T13:01:33.778Z,3.13
2022-11-03T13:04:01.849Z,2.97
2022-11-03T13:06:29.251Z,3.17
2022-11-03T13:08:56.646Z,2.60
2022-11-03T13:11:42.834Z,2.83
2022-11-03T13:14:10.256Z,3.00
2022-11-03T13:16:37.633Z,3.07
2022-11-03T13:19:05.098Z,2.67
2022-11-03T13:21:32.522Z,2.70
2022-11-03T13:23:59.903Z,2.60
2022-11-03T13:26:28.700Z,2.70
2022-11-03T13:28:56.150Z,2.70
2022-11-03T13:31:23.711Z,2.47
2022-11-03T13:33:52.259Z,2.80
2022-11-03T13:36:19.803Z,2.57
2022-11-03T13:38:47.282Z,2.73
2022-11-03T13:41:14.734Z,2.67
2022-11-03T13:43:43.511Z,2.77
2022-11-03T13:46:12.813Z,2.90
2022-11-03T13:51:27.928Z,2.70
2022-11-03T13:59:31.440Z,2.40
2022-11-03T14:04:47.211Z,2.57
2022-11-03T14:07:14.604Z,2.00
2022-11-03T14:09:42.090Z,2.43
2022-11-03T14:12:27.089Z,2.40
2022-11-03T14:14:55.873Z,2.90
2022-11-03T14:17:24.518Z,2.90
2022-11-03T14:19:53.077Z,2.63
2022-11-03T14:22:21.538Z,2.50
2022-11-03T14:24:48.954Z,2.60
2022-11-03T14:27:16.680Z,2.20
2022-11-03T14:29:44.709Z,2.70
2022-11-03T14:32:13.512Z,2.50
2022-11-03T14:34:41.069Z,2.30
2022-11-03T14:37:09.038Z,2.70
2022-11-03T14:39:37.186Z,2.70
2022-11-03T14:42:04.091Z,3.07
2022-11-03T14:44:31.617Z,3.17
2022-11-03T14:46:59.203Z,2.70
2022-11-03T14:49:28.150Z,2.90
2022-11-03T14:51:56.742Z,2.80
2022-11-03T14:54:24.219Z,2.80
2022-11-03T14:56:51.642Z,2.73
2022-11-03T14:59:19.076Z,2.23
2022-11-03T15:01:46.704Z,2.80
2022-11-03T15:04:14.237Z,2.90
2022-11-03T15:06:42.962Z,2.50
2022-11-03T15:09:10.512Z,2.63
2022-11-03T15:11:38.261Z,3.23
2022-11-03T15:14:05.716Z,3.00
2022-11-03T15:16:34.585Z,3.60
2022-11-03T15:19:03.514Z,3.43
2022-11-03T15:21:30.978Z,3.40
2022-11-03T15:26:47.175Z,3.13
2022-11-03T15:29:14.573Z,4.50
2022-11-03T15:31:47.164Z,3.30
2022-11-03T15:34:15.299Z,3.97
2022-11-03T15:36:42.709Z,3.30
2022-11-03T15:39:11.499Z,3.20
2022-11-03T15:41:38.893Z,3.70
2022-11-03T15:44:06.268Z,3.60
2022-11-03T15:46:35.338Z,3.63
2022-11-03T15:49:02.967Z,3.70
2022-11-03T15:51:30.366Z,3.73
2022-11-03T15:53:59.231Z,3.87
2022-11-03T15:56:28.244Z,3.53
2022-11-03T15:58:55.660Z,3.77
2022-11-03T16:01:23.324Z,3.40
2022-11-03T16:03:50.797Z,3.60
2022-11-03T16:06:18.304Z,3.37
2022-11-03T16:08:46.028Z,3.90
2022-11-03T16:11:14.313Z,4.10
2022-11-03T16:13:43.157Z,3.90
2022-11-03T16:16:10.578Z,3.90
2022-11-03T16:18:38.352Z,3.97
2022-11-03T16:21:05.894Z,3.90
2022-11-03T16:23:33.297Z,4.80
2022-11-03T16:26:00.717Z,6.53
2022-11-03T16:28:28.078Z,5.83
2022-11-03T16:30:56.822Z,4.20
2022-11-03T16:33:24.362Z,4.00
2022-11-03T16:35:51.731Z,3.80
2022-11-03T16:38:19.170Z,4.20
2022-11-03T16:40:46.574Z,4.57
2022-11-03T16:43:13.974Z,3.80
2022-11-03T16:45:41.385Z,4.50
2022-11-03T16:48:10.528Z,3.90
2022-11-03T16:50:41.507Z,3.40
2022-11-03T16:53:11.925Z,3.80
2022-11-03T16:55:39.314Z,4.10
2022-11-03T16:58:06.728Z,3.50
2022-11-03T17:00:34.136Z,4.10
2022-11-03T17:03:01.556Z,3.90
2022-11-03T17:05:30.291Z,4.90
2022-11-03T17:07:57.683Z,4.03
2022-11-03T17:10:25.141Z,4.40
2022-11-03T17:12:52.537Z,3.90
2022-11-03T17:15:19.933Z,4.20
2022-11-03T17:17:47.326Z,4.40
2022-11-03T17:20:14.947Z,4.23
2022-11-03T17:22:43.694Z,4.70
2022-11-03T17:25:12.469Z,4.77
2022-11-03T17:27:43.324Z,4.60
2022-11-03T17:30:12.801Z,4.47
2022-11-03T17:32:41.445Z,4.30
2022-11-03T17:35:15.015Z,4.53
2022-11-03T17:37:43.956Z,5.00
2022-11-03T17:40:15.269Z,3.50
2022-11-03T17:42:42.698Z,3.70
2022-11-03T17:45:12.544Z,4.10
2022-11-03T17:47:39.968Z,3.57
2022-11-03T17:50:07.929Z,3.93
2022-11-03T17:52:36.860Z,3.97
2022-11-03T17:55:08.332Z,3.97
2022-11-03T17:57:36.410Z,3.80
2022-11-03T18:00:05.185Z,3.87
2022-11-03T18:02:33.045Z,4.43
2022-11-03T18:05:02.066Z,3.97
2022-11-03T18:07:30.553Z,3.50
2022-11-03T18:09:57.954Z,3.40
2022-11-03T18:12:46.133Z,3.60
2022-11-03T18:15:15.652Z,4.10
2022-11-03T18:17:43.082Z,4.73
2022-11-03T18:20:14.466Z,3.60
2022-11-03T18:22:41.890Z,3.77
2022-11-03T18:25:12.738Z,3.17
2022-11-03T18:27:41.501Z,3.40
2022-11-03T18:30:09.812Z,3.70
2022-11-03T18:32:37.681Z,3.30
2022-11-03T18:35:05.273Z,3.60
2022-11-03T18:37:32.740Z,4.30
2022-11-03T18:40:00.349Z,3.73
2022-11-03T18:42:27.754Z,4.20
2022-11-03T18:45:02.307Z,3.57
2022-11-03T18:47:30.454Z,4.10
2022-11-03T18:49:58.147Z,4.23
2022-11-03T18:52:25.535Z,4.13
2022-11-03T18:54:53.732Z,4.10
2022-11-03T18:57:22.617Z,4.50
2022-11-03T18:59:50.594Z,4.30
2022-11-03T19:02:20.321Z,5.03
2022-11-03T19:04:48.127Z,4.50
2022-11-03T19:07:17.521Z,4.67
2022-11-03T19:09:44.990Z,4.40
2022-11-03T19:12:15.127Z,4.50
2022-11-03T19:14:44.870Z,4.53
2022-11-03T19:17:22.875Z,4.77
2022-11-03T19:19:52.596Z,5.07
2022-11-03T19:22:20.865Z,5.33
2022-11-03T19:24:48.344Z,5.60
2022-11-03T19:27:17.420Z,6.13
2022-11-03T19:29:45.540Z,6.00
2022-11-03T19:32:16.712Z,6.30
2022-11-03T19:34:44.340Z,6.10
2022-11-03T19:37:13.189Z,6.13
2022-11-03T19:39:41.789Z,6.60
2022-11-03T19:42:33.020Z,6.47
2022-11-03T19:45:01.312Z,5.37
2022-11-03T19:47:32.606Z,5.27
2022-11-03T19:50:01.250Z,5.60
2022-11-03T19:52:30.789Z,6.93
2022-11-03T19:54:58.857Z,7.50
2022-11-03T19:57:26.252Z,8.17
2022-11-03T19:59:58.631Z,8.53
2022-11-03T20:02:27.669Z,7.30
2022-11-03T20:04:55.322Z,6.57
2022-11-03T20:07:28.192Z,5.27
2022-11-03T20:09:59.944Z,5.83
2022-11-03T20:12:27.330Z,5.77
2022-11-03T20:14:54.853Z,5.33
2022-11-03T20:17:23.280Z,6.00
2022-11-03T20:19:52.072Z,5.80
2022-11-03T20:22:24.343Z,6.63
2022-11-03T20:24:52.532Z,6.57
2022-11-03T20:27:21.936Z,7.87
2022-11-03T20:29:49.603Z,7.10
2022-11-03T20:32:17.301Z,6.87
2022-11-03T20:34:46.449Z,8.73
2022-11-03T20:37:16.813Z,6.93
2022-11-03T20:39:44.237Z,6.33
2022-11-03T20:42:18.868Z,6.23
2022-11-03T20:44:47.880Z,6.13
2022-11-03T20:47:15.581Z,6.80
2022-11-03T20:49:43.155Z,6.60
2022-11-03T20:52:11.708Z,6.10
2022-11-03T20:54:39.103Z,6.27
2022-11-03T20:57:06.701Z,6.20
2022-11-03T20:59:37.687Z,6.17
2022-11-03T21:02:11.253Z,6.30
2022-11-03T21:04:38.737Z,5.70
2022-11-03T21:07:06.314Z,5.60
2022-11-03T21:09:33.707Z,5.67
2022-11-03T21:12:01.143Z,5.20
2022-11-03T21:14:29.719Z,5.13
2022-11-03T21:17:14.671Z,5.00
2022-11-03T21:20:04.150Z,4.80
2022-11-03T21:25:21.729Z,3.97
2022-11-03T21:27:49.586Z,3.90
2022-11-03T21:30:17.759Z,3.53
2022-11-03T21:32:45.147Z,3.57
2022-11-03T21:35:14.866Z,3.00
2022-11-03T21:37:42.344Z,3.50
2022-11-03T21:40:10.272Z,3.00
2022-11-03T21:42:55.240Z,3.20
2022-11-03T21:45:22.663Z,2.90
2022-11-03T21:48:07.450Z,2.80
2022-11-03T21:50:38.999Z,2.93
2022-11-03T21:53:06.970Z,3.00
2022-11-03T21:55:34.758Z,2.53
2022-11-03T21:58:02.330Z,3.13
2022-11-03T22:00:29.822Z,2.83
2022-11-03T22:02:57.202Z,2.63
2022-11-03T22:05:24.701Z,2.73
2022-11-03T22:07:53.421Z,2.67
2022-11-03T22:10:20.855Z,2.93
2022-11-03T22:12:48.390Z,2.93
2022-11-03T22:15:33.590Z,3.10
2022-11-03T22:18:01.291Z,2.60
2022-11-03T22:20:46.007Z,3.87
2022-11-03T22:23:34.128Z,2.97
2022-11-03T22:26:19.461Z,2.83
2022-11-03T22:29:06.934Z,2.30
2022-11-03T22:31:42.229Z,2.37
2022-11-03T22:34:27.346Z,2.33
2022-11-03T22:36:54.752Z,2.30
2022-11-03T22:39:41.044Z,2.20
2022-11-03T22:42:27.316Z,2.50
2022-11-03T22:45:12.151Z,2.40
2022-11-03T22:47:39.579Z,2.70
2022-11-03T22:50:07.329Z,2.13
2022-11-03T22:52:34.701Z,2.50
2022-11-03T22:55:02.453Z,2.10
2022-11-03T22:57:29.888Z,2.53
2022-11-03T22:59:57.384Z,2.00
2022-11-03T23:02:24.893Z,1.80
2022-11-03T23:04:52.331Z,1.80
2022-11-03T23:07:19.772Z,1.70
2022-11-03T23:09:47.747Z,1.60
2022-11-03T23:12:16.490Z,1.83
2022-11-03T23:15:01.698Z,1.60
2022-11-03T23:17:49.189Z,1.60
2022-11-03T23:20:34.510Z,1.23
2022-11-03T23:23:01.922Z,1.50
2022-11-03T23:25:28.361Z,1.70
2022-11-03T23:27:57.176Z,1.40
2022-11-03T23:30:24.539Z,1.27
2022-11-03T23:32:51.925Z,1.60
2022-11-03T23:35:19.354Z,1.50
2022-11-03T23:37:46.805Z,1.60
2022-11-03T23:40:17.238Z,1.70
2022-11-03T23:42:47.923Z,1.47
2022-11-03T23:45:34.607Z,1.60
2022-11-03T23:48:19.374Z,1.60
2022-11-03T23:50:46.801Z,1.30
2022-11-03T23:53:14.188Z,1.80
2022-11-03T23:56:04.413Z,1.40
2022-11-03T23:58:30.806Z,1.30
